Time;durP1;ratioP1;P1;durP2;ratioP2;P2;SDS_P1;SDS_P2;PMS_P1;PMS_P2;Temp;Humidity;BMP_temperature;BMP_pressure;BME280_temperature;BME280_humidity;BME280_pressure;Samples;Min_cycle;Max_cycle;Signal;HPM_P1;HPM_P2
2022/05/03 00:01:37;;;;;;;7.65;5.65;;;;;;;-140.79;100.00;63287.88;5045629;28;20060;-50
2022/05/03 00:04:08;;;;;;;6.93;5.07;;;;;;;-140.79;100.00;63287.88;5045496;28;20017;-50
2022/05/03 00:06:52;;;;;;;7.32;5.60;;;;;;;-140.79;100.00;63287.88;5027840;28;20029;-50
2022/05/03 00:09:56;;;;;;;6.82;5.10;;;;;;;-140.79;100.00;63287.88;5043899;28;20025;-51
2022/05/03 00:12:25;;;;;;;8.38;5.32;;;;;;;-140.79;100.00;63287.88;5038534;28;20544;-49
2022/05/03 00:14:55;;;;;;;7.17;5.07;;;;;;;-140.79;100.00;63287.88;5045132;28;20450;-49
2022/05/03 00:17:22;;;;;;;8.05;5.80;;;;;;;-140.79;100.00;63287.88;5043962;28;20291;-50
2022/05/03 00:19:47;;;;;;;7.88;5.50;;;;;;;-140.79;100.00;63287.88;5043966;28;20028;-50
2022/05/03 00:22:13;;;;;;;7.90;5.43;;;;;;;-140.79;100.00;63287.88;5044553;28;20025;-50
2022/05/03 00:24:39;;;;;;;6.68;5.03;;;;;;;-140.79;100.00;63287.88;5044680;28;20044;-50
2022/05/03 00:27:04;;;;;;;7.20;5.50;;;;;;;-140.79;100.00;63287.88;5045056;28;20079;-50
2022/05/03 00:29:30;;;;;;;7.72;5.68;;;;;;;-140.79;100.00;63287.88;5044592;28;20040;-50
2022/05/03 00:31:56;;;;;;;7.30;5.43;;;;;;;-140.79;100.00;63287.88;5045132;28;20024;-50
2022/05/03 00:34:22;;;;;;;7.07;5.18;;;;;;;-140.79;100.00;63287.88;5043269;28;20037;-50
2022/05/03 00:36:47;;;;;;;8.05;5.80;;;;;;;-140.79;100.00;63287.88;5045026;28;20091;-50
2022/05/03 00:39:12;;;;;;;7.15;5.38;;;;;;;-140.79;100.00;63287.88;5044532;28;20547;-51
2022/05/03 00:42:09;;;;;;;6.90;5.65;;;;;;;-140.79;100.00;63287.88;5044468;28;20035;-50
2022/05/03 00:45:03;;;;;;;8.27;5.85;;;;;;;-140.79;100.00;63287.88;5035455;28;20127;-50
2022/05/03 00:47:53;;;;;;;8.27;5.90;;;;;;;-140.79;100.00;63287.88;5044434;28;20025;-50
2022/05/03 00:50:39;;;;;;;7.72;5.72;;;;;;;-140.79;100.00;63287.88;5044212;28;20032;-50
2022/05/03 00:53:09;;;;;;;7.65;5.35;;;;;;;-140.79;100.00;63287.88;5043667;28;20136;-50
2022/05/03 00:56:02;;;;;;;7.05;5.55;;;;;;;-140.79;100.00;63287.88;5044495;28;20905;-51
2022/05/03 00:58:43;;;;;;;7.60;5.97;;;;;;;-140.79;100.00;63287.88;5042749;28;20044;-50
2022/05/03 01:01:11;;;;;;;7.32;5.75;;;;;;;-140.79;100.00;63287.88;5044030;28;20106;-49
2022/05/03 01:03:41;;;;;;;7.65;5.53;;;;;;;-140.79;100.00;63287.88;5045826;28;20017;-51
2022/05/03 01:06:21;;;;;;;7.78;5.93;;;;;;;-140.79;100.00;63287.88;5045254;28;20442;-50
2022/05/03 01:09:03;;;;;;;7.65;5.70;;;;;;;-140.79;100.00;63287.88;5063782;28;20032;-50
2022/05/03 01:11:41;;;;;;;7.80;5.72;;;;;;;-140.79;100.00;63287.88;5047667;28;20071;-50
2022/05/03 01:14:37;;;;;;;8.93;6.38;;;;;;;-140.79;100.00;63287.88;5045702;28;20031;-50
2022/05/03 01:17:05;;;;;;;8.07;5.85;;;;;;;-140.79;100.00;63287.88;5045863;28;20479;-50
2022/05/03 01:19:46;;;;;;;8.05;5.93;;;;;;;-140.79;100.00;63287.88;5063884;28;20111;-51
2022/05/03 01:22:33;;;;;;;8.90;6.30;;;;;;;-140.79;100.00;63287.88;5063250;28;20081;-50
2022/05/03 01:25:10;;;;;;;8.35;5.78;;;;;;;-140.79;100.00;63287.88;5063552;28;20116;-51
2022/05/03 01:28:05;;;;;;;8.48;5.90;;;;;;;-140.79;100.00;63287.88;5063287;28;20071;-51
2022/05/03 01:30:31;;;;;;;8.85;6.28;;;;;;;-140.79;100.00;63287.88;5063460;28;20633;-50
2022/05/03 01:33:06;;;;;;;7.82;5.80;;;;;;;-140.79;100.00;63287.88;5045629;28;20021;-50
2022/05/03 01:35:38;;;;;;;7.10;5.88;;;;;;;-140.79;100.00;63287.88;5047069;28;20020;-51
2022/05/03 01:38:29;;;;;;;8.32;6.72;;;;;;;-140.79;100.00;63287.88;5046054;28;20039;-50
2022/05/03 01:41:16;;;;;;;8.27;6.00;;;;;;;-140.79;100.00;63287.88;5045642;28;20111;-49
2022/05/03 01:43:56;;;;;;;8.63;6.20;;;;;;;-140.79;100.00;63287.88;5063161;28;20085;-49
2022/05/03 01:46:23;;;;;;;8.15;6.63;;;;;;;-140.79;100.00;63287.88;5045257;28;20407;-50
2022/05/03 01:51:42;;;;;;;8.20;6.43;;;;;;;-140.79;100.00;63287.88;5043274;28;20561;-48
2022/05/03 01:54:25;;;;;;;9.02;6.90;;;;;;;-140.79;100.00;63287.88;5041830;28;20041;-49
2022/05/03 01:56:57;;;;;;;10.73;6.93;;;;;;;-140.79;100.00;63287.88;5043558;28;20041;-49
2022/05/03 01:59:49;;;;;;;8.13;6.32;;;;;;;-140.79;100.00;63287.88;5043095;28;20420;-49
2022/05/03 02:02:24;;;;;;;8.55;6.22;;;;;;;-140.79;100.00;63287.88;5043318;28;20021;-51
2022/05/03 02:05:01;;;;;;;9.25;6.63;;;;;;;-140.79;100.00;63287.88;5025980;28;20726;-50
2022/05/03 02:07:30;;;;;;;8.82;6.07;;;;;;;-140.79;100.00;63287.88;5042054;28;20025;-50
2022/05/03 02:10:03;;;;;;;8.85;6.20;;;;;;;-140.79;100.00;63287.88;5042185;28;20094;-51
2022/05/03 02:12:29;;;;;;;8.32;6.38;;;;;;;-140.79;100.00;63287.88;5042896;28;20360;-50
2022/05/03 02:14:55;;;;;;;9.45;6.47;;;;;;;-140.79;100.00;63287.88;5041870;28;20552;-51
2022/05/03 02:17:42;;;;;;;9.10;6.85;;;;;;;-140.79;100.00;63287.88;5043420;28;20023;-50
2022/05/03 02:20:17;;;;;;;9.05;6.00;;;;;;;-140.79;100.00;63287.88;5043233;28;20033;-50
2022/05/03 02:23:04;;;;;;;9.75;6.75;;;;;;;-140.79;100.00;63287.88;5042172;28;20050;-51
2022/05/03 02:25:58;;;;;;;9.98;7.50;;;;;;;-140.79;100.00;63287.88;5042916;28;20083;-50
2022/05/03 02:28:33;;;;;;;8.38;6.25;;;;;;;-140.79;100.00;63287.88;5043606;28;20392;-50
2022/05/03 02:31:00;;;;;;;8.35;6.38;;;;;;;-140.79;100.00;63287.88;5041439;28;20040;-51
2022/05/03 02:33:27;;;;;;;10.10;7.00;;;;;;;-140.79;100.00;63287.88;5041473;28;20059;-50
2022/05/03 02:35:56;;;;;;;8.95;6.63;;;;;;;-140.79;100.00;63287.88;5042946;28;20021;-51
2022/05/03 02:38:28;;;;;;;9.50;6.93;;;;;;;-140.79;100.00;63287.88;5045384;28;20029;-49
2022/05/03 02:40:54;;;;;;;8.57;6.38;;;;;;;-140.79;100.00;63287.88;5046943;28;20094;-50
2022/05/03 02:43:19;;;;;;;9.40;6.50;;;;;;;-140.79;100.00;63287.88;5045121;28;20033;-51
2022/05/03 02:45:53;;;;;;;9.18;6.78;;;;;;;-140.79;100.00;63287.88;5045121;28;20110;-50
2022/05/03 02:48:24;;;;;;;8.25;6.35;;;;;;;-140.79;100.00;63287.88;5044929;28;20111;-50
2022/05/03 02:51:00;;;;;;;8.90;6.40;;;;;;;-140.79;100.00;63287.88;5045333;28;20059;-50
2022/05/03 02:53:51;;;;;;;7.40;6.07;;;;;;;-140.79;100.00;63287.88;5044730;28;20029;-50
2022/05/03 02:56:38;;;;;;;8.45;6.00;;;;;;;-140.79;100.00;63287.88;5046685;28;20099;-50
2022/05/03 03:01:47;;;;;;;9.10;6.68;;;;;;;-140.79;100.00;63287.88;5046738;28;20044;-49
2022/05/03 03:02:35;;;;;;;8.80;6.70;;;;;;;-140.79;100.00;63287.88;5046242;28;20029;-50
2022/05/03 03:05:08;;;;;;;9.10;6.40;;;;;;;-140.79;100.00;63287.88;5017288;28;20037;-50
2022/05/03 03:08:01;;;;;;;9.95;6.43;;;;;;;-140.79;100.00;63287.88;5066094;28;20032;-50
2022/05/03 03:10:51;;;;;;;8.80;6.25;;;;;;;-140.79;100.00;63287.88;5066147;28;20111;-50
2022/05/03 03:13:40;;;;;;;8.52;6.28;;;;;;;-140.79;100.00;63287.88;5017124;28;20040;-50
2022/05/03 03:16:07;;;;;;;10.10;7.05;;;;;;;-140.79;100.00;63287.88;5050195;28;20107;-50
2022/05/03 03:18:33;;;;;;;9.43;6.72;;;;;;;-140.79;100.00;63287.88;5048493;28;20174;-50
2022/05/03 03:20:59;;;;;;;9.98;6.78;;;;;;;-140.79;100.00;63287.88;5031791;28;20032;-51
2022/05/03 03:23:30;;;;;;;8.00;6.15;;;;;;;-140.79;100.00;63287.88;5047160;28;20521;-50
2022/05/03 03:25:56;;;;;;;9.50;7.10;;;;;;;-140.79;100.00;63287.88;5064809;28;20145;-50
2022/05/03 03:28:22;;;;;;;7.95;5.65;;;;;;;-140.79;100.00;63287.88;5045948;28;20043;-52
2022/05/03 03:30:51;;;;;;;9.88;7.22;;;;;;;-140.79;100.00;63287.88;5065386;28;20063;-52
2022/05/03 03:33:17;;;;;;;7.78;6.03;;;;;;;-140.79;100.00;63287.88;5064938;28;20032;-52
2022/05/03 03:35:43;;;;;;;9.75;6.60;;;;;;;-140.79;100.00;63287.88;5047489;28;20047;-53
2022/05/03 03:38:09;;;;;;;9.02;6.63;;;;;;;-140.79;100.00;63287.88;5029856;28;20036;-52
2022/05/03 03:40:34;;;;;;;9.93;7.43;;;;;;;-140.79;100.00;63287.88;5047404;28;20492;-52
2022/05/03 03:43:00;;;;;;;12.10;7.88;;;;;;;-140.79;100.00;63287.88;5064704;28;20027;-52
2022/05/03 03:45:25;;;;;;;10.23;7.20;;;;;;;-140.79;100.00;63287.88;5064964;28;20024;-51
2022/05/03 03:47:50;;;;;;;10.00;7.80;;;;;;;-140.79;100.00;63287.88;5064628;28;20029;-51
2022/05/03 03:50:16;;;;;;;11.82;8.10;;;;;;;-140.79;100.00;63287.88;5045322;28;20025;-53
2022/05/03 03:52:42;;;;;;;11.32;8.23;;;;;;;-140.79;100.00;63287.88;5063466;28;20557;-52
2022/05/03 03:55:09;;;;;;;10.95;7.78;;;;;;;-140.79;100.00;63287.88;5064035;28;20029;-51
2022/05/03 03:57:35;;;;;;;12.30;8.80;;;;;;;-140.79;100.00;63287.88;5033290;28;20111;-51
2022/05/03 04:00:01;;;;;;;12.15;9.02;;;;;;;-140.79;100.00;63287.88;5064826;28;20055;-52
2022/05/03 04:02:27;;;;;;;11.40;8.07;;;;;;;-140.79;100.00;63287.88;5064807;28;20032;-52
2022/05/03 04:04:52;;;;;;;13.55;9.55;;;;;;;-140.79;100.00;63287.88;5064448;28;20032;-50
2022/05/03 04:07:18;;;;;;;12.52;8.75;;;;;;;-140.79;100.00;63287.88;5045101;28;20268;-52
2022/05/03 04:09:43;;;;;;;14.70;9.52;;;;;;;-140.79;100.00;63287.88;5060923;28;20311;-52
2022/05/03 04:12:09;;;;;;;14.85;9.98;;;;;;;-140.79;100.00;63287.88;5060317;28;20458;-51
2022/05/03 04:14:34;;;;;;;14.60;10.27;;;;;;;-140.79;100.00;63287.88;5061968;28;20067;-52
2022/05/03 04:17:00;;;;;;;16.75;11.43;;;;;;;-140.79;100.00;63287.88;5061377;28;20024;-52
2022/05/03 04:19:25;;;;;;;15.30;10.52;;;;;;;-140.79;100.00;63287.88;5062198;28;20040;-53
2022/05/03 04:21:51;;;;;;;15.27;10.85;;;;;;;-140.79;100.00;63287.88;5063043;28;20020;-52
2022/05/03 04:24:16;;;;;;;15.70;10.80;;;;;;;-140.79;100.00;63287.88;5058044;28;20033;-53
2022/05/03 04:26:42;;;;;;;15.48;11.18;;;;;;;-140.79;100.00;63287.88;5064048;28;20726;-53
2022/05/03 04:29:07;;;;;;;14.68;10.63;;;;;;;-140.79;100.00;63287.88;5060729;28;20024;-53
2022/05/03 04:31:34;;;;;;;16.25;11.48;;;;;;;-140.79;100.00;63287.88;5063834;28;20054;-53
2022/05/03 04:34:01;;;;;;;17.95;12.15;;;;;;;-140.79;100.00;63287.88;5043739;28;20069;-52
2022/05/03 04:36:26;;;;;;;16.05;11.10;;;;;;;-140.79;100.00;63287.88;5062964;28;20730;-53
2022/05/03 04:38:52;;;;;;;16.63;11.57;;;;;;;-140.79;100.00;63287.88;5063174;28;20024;-53
2022/05/03 04:41:20;;;;;;;17.88;13.50;;;;;;;-140.79;100.00;63287.88;5063436;28;20101;-53
2022/05/03 04:43:45;;;;;;;17.90;12.77;;;;;;;-140.79;100.00;63287.88;5064153;28;20048;-51
2022/05/03 04:46:11;;;;;;;18.13;12.68;;;;;;;-140.79;100.00;63287.88;5064259;28;20039;-52
2022/05/03 04:48:36;;;;;;;17.50;11.98;;;;;;;-140.79;100.00;63287.88;5063956;28;20029;-53
2022/05/03 04:51:01;;;;;;;16.98;12.27;;;;;;;-140.79;100.00;63287.88;5063499;28;20044;-54
2022/05/03 04:53:27;;;;;;;16.45;11.73;;;;;;;-140.79;100.00;63287.88;5042233;28;20025;-53
2022/05/03 04:55:52;;;;;;;16.83;11.85;;;;;;;-140.79;100.00;63287.88;5063734;28;20021;-53
2022/05/03 04:58:18;;;;;;;16.42;11.43;;;;;;;-140.79;100.00;63287.88;5063734;28;20044;-54
2022/05/03 05:00:44;;;;;;;16.50;12.45;;;;;;;-140.79;100.00;63287.88;5062686;28;20037;-53
2022/05/03 05:03:09;;;;;;;15.23;11.27;;;;;;;-140.79;100.00;63287.88;5063807;28;20043;-53
2022/05/03 05:05:34;;;;;;;18.33;11.90;;;;;;;-140.79;100.00;63287.88;5061592;28;20051;-53
2022/05/03 05:08:04;;;;;;;15.98;11.02;;;;;;;-140.79;100.00;63287.88;5062160;28;20036;-53
2022/05/03 05:10:31;;;;;;;18.38;11.93;;;;;;;-140.79;100.00;63287.88;5045870;28;20028;-53
2022/05/03 05:12:57;;;;;;;15.88;12.07;;;;;;;-140.79;100.00;63287.88;5063110;28;20442;-53
2022/05/03 05:15:25;;;;;;;15.70;11.52;;;;;;;-140.79;100.00;63287.88;5063300;28;20017;-53
2022/05/03 05:17:57;;;;;;;16.27;10.98;;;;;;;-140.79;100.00;63287.88;5063380;28;20043;-53
2022/05/03 05:20:23;;;;;;;16.23;10.93;;;;;;;-140.79;100.00;63287.88;5045457;28;20028;-53
2022/05/03 05:22:48;;;;;;;15.23;10.68;;;;;;;-140.79;100.00;63287.88;5062690;28;20486;-53
2022/05/03 05:25:14;;;;;;;14.00;10.55;;;;;;;-140.79;100.00;63287.88;5045035;28;20124;-52
2022/05/03 05:27:40;;;;;;;14.23;9.68;;;;;;;-140.79;100.00;63287.88;5062700;28;20464;-53
2022/05/03 05:30:07;;;;;;;13.25;9.60;;;;;;;-140.79;100.00;63287.88;5040641;28;20261;-53
2022/05/03 05:32:35;;;;;;;13.57;10.20;;;;;;;-140.79;100.00;63287.88;5062055;28;20029;-51
2022/05/03 05:35:01;;;;;;;12.23;9.00;;;;;;;-140.79;100.00;63287.88;5063236;28;20025;-52
2022/05/03 05:37:27;;;;;;;13.40;9.10;;;;;;;-140.79;100.00;63287.88;5043928;28;20036;-52
2022/05/03 05:39:52;;;;;;;11.60;8.40;;;;;;;-140.79;100.00;63287.88;5061368;28;20039;-52
2022/05/03 05:42:18;;;;;;;10.63;7.82;;;;;;;-140.79;100.00;63287.88;5061880;28;20041;-53
2022/05/03 05:44:43;;;;;;;11.27;8.38;;;;;;;-140.79;100.00;63287.88;5061821;28;20032;-46
2022/05/03 05:47:09;;;;;;;11.82;8.35;;;;;;;-140.79;100.00;63287.88;5061557;28;20047;-45
2022/05/03 05:49:34;;;;;;;12.82;8.35;;;;;;;-140.79;100.00;63287.88;5061052;28;20028;-46
2022/05/03 05:54:44;;;;;;;12.95;8.02;;;;;;;-140.79;100.00;63287.88;5059361;28;20542;-43
2022/05/03 05:57:10;;;;;;;11.80;7.80;;;;;;;-140.79;100.00;63287.88;5061627;28;20021;-45
2022/05/03 05:59:35;;;;;;;11.57;7.55;;;;;;;-140.79;100.00;63287.88;5058045;28;20769;-46
2022/05/03 06:02:00;;;;;;;12.70;7.75;;;;;;;-140.79;100.00;63287.88;5060359;28;20013;-45
2022/05/03 06:04:29;;;;;;;9.23;7.10;;;;;;;-140.79;100.00;63287.88;5060946;28;20806;-46
2022/05/03 06:06:55;;;;;;;11.30;7.15;;;;;;;-140.79;100.00;63287.88;5060429;28;20032;-48
2022/05/03 06:09:20;;;;;;;9.57;7.13;;;;;;;-140.79;100.00;63287.88;5060514;28;20039;-47
2022/05/03 06:11:46;;;;;;;9.93;6.80;;;;;;;-140.79;100.00;63287.88;5025310;28;20044;-47
2022/05/03 06:14:11;;;;;;;9.30;7.03;;;;;;;-140.79;100.00;63287.88;5065277;28;20024;-46
2022/05/03 06:16:50;;;;;;;9.85;6.95;;;;;;;-140.79;100.00;63287.88;5063172;28;20499;-47
2022/05/03 06:19:15;;;;;;;8.73;6.40;;;;;;;-140.79;100.00;63287.88;5066230;28;20059;-47
2022/05/03 06:21:41;;;;;;;8.88;6.03;;;;;;;-140.79;100.00;63287.88;5064730;28;20052;-47
2022/05/03 06:24:06;;;;;;;8.68;6.40;;;;;;;-140.79;100.00;63287.88;5066221;28;20029;-45
2022/05/03 06:26:32;;;;;;;8.07;5.93;;;;;;;-140.79;100.00;63287.88;5067015;28;20048;-47
2022/05/03 06:28:58;;;;;;;8.65;5.97;;;;;;;-140.79;100.00;63287.88;5065954;28;20462;-46
2022/05/03 06:31:24;;;;;;;8.27;5.80;;;;;;;-140.79;100.00;63287.88;5066808;28;20035;-46
2022/05/03 06:33:50;;;;;;;9.95;6.22;;;;;;;-140.79;100.00;63287.88;5065441;28;20029;-46
2022/05/03 06:36:16;;;;;;;8.07;5.70;;;;;;;-140.79;100.00;63287.88;5066465;28;20086;-47
2022/05/03 06:38:41;;;;;;;7.85;5.75;;;;;;;-140.79;100.00;63287.88;5066636;28;20039;-46
2022/05/03 06:41:08;;;;;;;8.20;5.30;;;;;;;-140.79;100.00;63287.88;5066801;28;20033;-47
2022/05/03 06:43:34;;;;;;;9.00;6.05;;;;;;;-140.79;100.00;63287.88;5066484;28;20107;-47
2022/05/03 06:45:59;;;;;;;9.55;5.45;;;;;;;-140.79;100.00;63287.88;5066378;28;20503;-48
2022/05/03 06:48:25;;;;;;;7.63;4.80;;;;;;;-140.79;100.00;63287.88;5066482;28;20511;-47
2022/05/03 06:50:50;;;;;;;7.45;5.10;;;;;;;-140.79;100.00;63287.88;5066532;28;20431;-45
2022/05/03 06:53:16;;;;;;;8.73;5.20;;;;;;;-140.79;100.00;63287.88;5065024;28;20115;-45
2022/05/03 06:55:41;;;;;;;7.50;5.20;;;;;;;-140.79;100.00;63287.88;5031664;28;20025;-45
2022/05/03 06:58:07;;;;;;;7.57;5.32;;;;;;;-140.79;100.00;63287.88;5065100;28;20032;-45
2022/05/03 07:00:32;;;;;;;6.95;4.85;;;;;;;-140.79;100.00;63287.88;5065041;28;20082;-45
2022/05/03 07:02:57;;;;;;;7.78;4.70;;;;;;;-140.79;100.00;63287.88;5065479;28;20313;-46
2022/05/03 07:05:23;;;;;;;6.40;4.65;;;;;;;-140.79;100.00;63287.88;5063966;28;20707;-46
2022/05/03 07:07:48;;;;;;;6.40;4.53;;;;;;;-140.79;100.00;63287.88;5065540;28;20064;-46
2022/05/03 07:10:14;;;;;;;7.20;4.75;;;;;;;-140.79;100.00;63287.88;5066453;28;20526;-47
2022/05/03 07:12:39;;;;;;;7.63;4.50;;;;;;;-140.79;100.00;63287.88;5065872;28;20114;-47
2022/05/03 07:15:05;;;;;;;5.85;4.32;;;;;;;-140.79;100.00;63287.88;5066015;28;20502;-46
2022/05/03 07:22:59;;;;;;;6.40;4.50;;;;;;;-140.79;100.00;63287.88;5062661;28;20164;-46
2022/05/03 07:25:24;;;;;;;6.55;4.53;;;;;;;-140.79;100.00;63287.88;5064126;28;20491;-47
2022/05/03 07:27:50;;;;;;;6.63;4.85;;;;;;;-140.79;100.00;63287.88;5065931;28;20033;-47
2022/05/03 07:30:16;;;;;;;5.93;4.10;;;;;;;-140.79;100.00;63287.88;5065818;28;20140;-46
2022/05/03 07:32:42;;;;;;;6.30;4.63;;;;;;;-140.79;100.00;63287.88;5065757;28;20127;-47
2022/05/03 07:35:08;;;;;;;6.82;5.15;;;;;;;-140.79;100.00;63287.88;5065808;28;20028;-46
2022/05/03 07:37:33;;;;;;;6.45;4.55;;;;;;;-140.79;100.00;63287.88;5065423;28;20033;-46
2022/05/03 07:39:59;;;;;;;6.70;5.10;;;;;;;-140.79;100.00;63287.88;5065989;28;20035;-47
2022/05/03 07:42:24;;;;;;;5.03;4.03;;;;;;;-140.79;100.00;63287.88;5065420;28;20074;-46
2022/05/03 07:44:50;;;;;;;5.30;4.10;;;;;;;-140.79;100.00;63287.88;5065720;28;20146;-47
2022/05/03 07:47:15;;;;;;;6.03;4.40;;;;;;;-140.79;100.00;63287.88;5065463;28;20023;-44
2022/05/03 07:49:41;;;;;;;6.50;4.43;;;;;;;-140.79;100.00;63287.88;5065496;28;20110;-47
2022/05/03 07:52:06;;;;;;;6.53;4.05;;;;;;;-140.79;100.00;63287.88;5065250;28;20110;-45
2022/05/03 07:54:32;;;;;;;6.50;4.28;;;;;;;-140.79;100.00;63287.88;5065212;28;20112;-45
2022/05/03 07:56:58;;;;;;;6.15;4.32;;;;;;;-140.79;100.00;63287.88;5065432;28;20119;-46
2022/05/03 07:59:25;;;;;;;6.18;4.35;;;;;;;-140.79;100.00;63287.88;5065053;28;20036;-45
2022/05/03 08:01:54;;;;;;;6.20;3.83;;;;;;;-140.79;100.00;63287.88;5046038;28;20425;-43
2022/05/03 08:04:20;;;;;;;6.28;4.47;;;;;;;-140.79;100.00;63287.88;5061020;28;20040;-45
2022/05/03 08:06:45;;;;;;;7.45;4.32;;;;;;;-140.79;100.00;63287.88;5063676;28;20085;-44
2022/05/03 08:09:11;;;;;;;5.45;3.97;;;;;;;-140.79;100.00;63287.88;5063402;28;20029;-46
2022/05/03 08:11:36;;;;;;;5.97;4.00;;;;;;;-140.79;100.00;63287.88;5063919;28;20101;-45
2022/05/03 08:14:02;;;;;;;5.07;3.88;;;;;;;-140.79;100.00;63287.88;5062083;28;20034;-45
2022/05/03 08:16:30;;;;;;;5.72;3.85;;;;;;;-140.79;100.00;63287.88;5063053;28;20411;-45
2022/05/03 08:18:56;;;;;;;6.47;4.30;;;;;;;-140.79;100.00;63287.88;5063112;28;20016;-46
2022/05/03 08:21:22;;;;;;;7.30;4.25;;;;;;;-140.79;100.00;63287.88;5062694;28;20822;-46
2022/05/03 08:23:47;;;;;;;4.95;3.92;;;;;;;-140.79;100.00;63287.88;5062416;28;20043;-46
2022/05/03 08:26:13;;;;;;;5.30;3.80;;;;;;;-140.79;100.00;63287.88;5061271;28;20044;-46
2022/05/03 08:28:41;;;;;;;7.13;3.97;;;;;;;-140.79;100.00;63287.88;5061505;28;20042;-45
2022/05/03 08:31:07;;;;;;;4.78;3.45;;;;;;;-140.79;100.00;63287.88;5061638;28;20029;-46
2022/05/03 08:33:33;;;;;;;5.30;4.03;;;;;;;-140.79;100.00;63287.88;5061053;28;20036;-45
2022/05/03 08:35:58;;;;;;;5.57;4.30;;;;;;;-140.79;100.00;63287.88;5043787;28;20029;-45
2022/05/03 08:43:54;;;;;;;5.50;3.90;;;;;;;-140.79;100.00;63287.88;5061804;28;20170;-45
2022/05/03 08:46:20;;;;;;;6.18;4.00;;;;;;;-140.79;100.00;63287.88;5061411;28;20035;-46
2022/05/03 08:48:46;;;;;;;5.22;3.47;;;;;;;-140.79;100.00;63287.88;5041559;28;20081;-46
2022/05/03 08:51:15;;;;;;;7.97;4.13;;;;;;;-140.79;100.00;63287.88;5042968;28;20359;-46
2022/05/03 08:53:40;;;;;;;6.13;3.70;;;;;;;-140.79;100.00;63287.88;5043331;28;20032;-45
2022/05/03 08:56:06;;;;;;;5.55;3.85;;;;;;;-140.79;100.00;63287.88;5028857;28;20081;-46
2022/05/03 08:58:32;;;;;;;5.88;3.53;;;;;;;-140.79;100.00;63287.88;5061672;28;20032;-46
2022/05/03 09:00:57;;;;;;;4.70;3.20;;;;;;;-140.79;100.00;63287.88;5059939;28;20032;-45
2022/05/03 09:03:24;;;;;;;5.55;3.42;;;;;;;-140.79;100.00;63287.88;5060031;28;20035;-46
2022/05/03 09:05:49;;;;;;;5.93;3.25;;;;;;;-140.79;100.00;63287.88;5057944;28;20036;-46
2022/05/03 09:08:21;;;;;;;4.38;3.13;;;;;;;-140.79;100.00;63287.88;5060048;28;20480;-45
2022/05/03 09:10:46;;;;;;;5.65;3.38;;;;;;;-140.79;100.00;63287.88;5060634;28;20036;-47
2022/05/03 09:13:16;;;;;;;5.00;3.13;;;;;;;-140.79;100.00;63287.88;5060504;28;20047;-46
2022/05/03 09:15:41;;;;;;;5.63;3.10;;;;;;;-140.79;100.00;63287.88;5043548;28;20017;-46
2022/05/03 09:18:07;;;;;;;5.00;3.22;;;;;;;-140.79;100.00;63287.88;5060755;28;21426;-46
2022/05/03 09:26:12;;;;;;;5.25;3.20;;;;;;;-140.79;100.00;63287.88;5058785;28;20120;-45
2022/05/03 09:28:50;;;;;;;5.20;3.33;;;;;;;-140.79;100.00;63287.88;5060042;28;20974;-45
2022/05/03 09:31:28;;;;;;;6.70;2.83;;;;;;;-140.79;100.00;63287.88;5058840;28;20519;-45
2022/05/03 09:33:54;;;;;;;4.80;2.95;;;;;;;-140.79;100.00;63287.88;5057817;28;20028;-45
2022/05/03 09:36:20;;;;;;;3.88;2.70;;;;;;;-140.79;100.00;63287.88;5062031;28;20021;-45
2022/05/03 09:38:49;;;;;;;4.03;2.75;;;;;;;-140.79;100.00;63287.88;5062182;28;20856;-45
2022/05/03 09:41:15;;;;;;;4.70;2.88;;;;;;;-140.79;100.00;63287.88;5044907;28;20303;-46
2022/05/03 09:44:04;;;;;;;4.90;2.90;;;;;;;-140.79;100.00;63287.88;5062472;28;20020;-46
2022/05/03 09:46:51;;;;;;;4.05;2.72;;;;;;;-140.79;100.00;63287.88;5061550;28;20031;-47
2022/05/03 09:49:20;;;;;;;8.27;3.10;;;;;;;-140.79;100.00;63287.88;5060032;28;20179;-45
2022/05/03 09:51:48;;;;;;;4.97;2.60;;;;;;;-140.79;100.00;63287.88;5062136;28;20443;-46
2022/05/03 09:54:13;;;;;;;4.88;3.17;;;;;;;-140.79;100.00;63287.88;5061785;28;20032;-45
2022/05/03 09:56:40;;;;;;;4.60;2.90;;;;;;;-140.79;100.00;63287.88;5061100;28;20047;-44
2022/05/03 09:59:08;;;;;;;6.00;2.90;;;;;;;-140.79;100.00;63287.88;5063084;28;20052;-46
2022/05/03 10:01:34;;;;;;;4.80;2.88;;;;;;;-140.79;100.00;63287.88;5062995;28;20032;-46
2022/05/03 10:04:00;;;;;;;5.63;2.85;;;;;;;-140.79;100.00;63287.88;5063109;28;20029;-45
2022/05/03 10:06:25;;;;;;;5.38;3.13;;;;;;;-140.79;100.00;63287.88;5063330;28;20024;-46
2022/05/03 10:08:51;;;;;;;4.30;3.03;;;;;;;-140.79;100.00;63287.88;5028487;28;20029;-46
2022/05/03 10:11:17;;;;;;;5.45;3.13;;;;;;;-140.79;100.00;63287.88;5028649;28;20025;-45
2022/05/03 10:13:43;;;;;;;4.47;3.00;;;;;;;-140.79;100.00;63287.88;5062023;28;20032;-46
2022/05/03 10:21:38;;;;;;;6.63;3.58;;;;;;;-140.79;100.00;63287.88;5027263;28;20039;-46
2022/05/03 10:24:11;;;;;;;5.50;3.67;;;;;;;-140.79;100.00;63287.88;5028973;28;20855;-45
2022/05/03 10:27:06;;;;;;;7.07;4.07;;;;;;;-140.79;100.00;63287.88;5041008;28;20057;-47
2022/05/03 10:29:37;;;;;;;7.50;4.72;;;;;;;-140.79;100.00;63287.88;5032022;28;20083;-46
2022/05/03 10:32:05;;;;;;;7.32;5.00;;;;;;;-140.79;100.00;63287.88;5040276;28;20036;-46
2022/05/03 10:34:40;;;;;;;6.97;4.60;;;;;;;-140.79;100.00;63287.88;5040536;28;20535;-46
2022/05/03 10:37:06;;;;;;;9.95;5.80;;;;;;;-140.79;100.00;63287.88;5040727;28;20033;-46
2022/05/03 10:39:32;;;;;;;9.02;6.18;;;;;;;-140.79;100.00;63287.88;5041641;28;20029;-46
2022/05/03 10:42:03;;;;;;;10.07;6.50;;;;;;;-140.79;100.00;63287.88;5041640;28;21930;-45
2022/05/03 10:44:46;;;;;;;9.98;7.07;;;;;;;-140.79;100.00;63287.88;5021179;28;20025;-46
2022/05/03 10:47:13;;;;;;;10.20;6.68;;;;;;;-140.79;100.00;63287.88;5041186;28;20033;-46
2022/05/03 10:50:10;;;;;;;10.90;7.32;;;;;;;-140.79;100.00;63287.88;5025043;28;20029;-46
2022/05/03 10:52:35;;;;;;;12.52;7.72;;;;;;;-140.79;100.00;63287.88;5040396;28;20032;-44
2022/05/03 10:55:07;;;;;;;12.75;8.57;;;;;;;-140.79;100.00;63287.88;5023019;28;20022;-45
2022/05/03 10:57:34;;;;;;;12.98;7.95;;;;;;;-140.79;100.00;63287.88;5021862;28;20115;-45
2022/05/03 11:00:00;;;;;;;14.38;9.88;;;;;;;-140.79;100.00;63287.88;5025183;28;20033;-46
2022/05/03 11:02:25;;;;;;;13.43;8.90;;;;;;;-140.79;100.00;63287.88;5026664;28;20395;-44
2022/05/03 11:05:19;;;;;;;14.50;9.23;;;;;;;-140.79;100.00;63287.88;5042419;28;20212;-46
2022/05/03 11:08:18;;;;;;;14.32;8.85;;;;;;;-140.79;100.00;63287.88;5040551;28;20041;-46
2022/05/03 11:10:44;;;;;;;14.05;9.98;;;;;;;-140.79;100.00;63287.88;5026717;28;20044;-47
2022/05/03 11:13:41;;;;;;;13.13;9.55;;;;;;;-140.79;100.00;63287.88;5043726;28;20041;-47
2022/05/03 11:16:23;;;;;;;15.27;10.23;;;;;;;-140.79;100.00;63287.88;5044086;28;20021;-46
2022/05/03 11:18:48;;;;;;;16.45;10.23;;;;;;;-140.79;100.00;63287.88;5044668;28;20016;-47
2022/05/03 11:21:15;;;;;;;15.88;10.43;;;;;;;-140.79;100.00;63287.88;5044762;28;20037;-47
2022/05/03 11:23:54;;;;;;;16.33;10.90;;;;;;;-140.79;100.00;63287.88;5043747;28;20039;-47
2022/05/03 11:26:20;;;;;;;17.10;11.00;;;;;;;-140.79;100.00;63287.88;5054883;28;20116;-46
2022/05/03 11:28:49;;;;;;;16.27;10.52;;;;;;;-140.79;100.00;63287.88;5064921;28;20317;-47
2022/05/03 11:31:17;;;;;;;17.00;10.57;;;;;;;-140.79;100.00;63287.88;5063472;28;20020;-45
2022/05/03 11:33:53;;;;;;;14.93;10.20;;;;;;;-140.79;100.00;63287.88;5062042;28;20355;-46
2022/05/03 11:36:19;;;;;;;13.48;9.23;;;;;;;-140.79;100.00;63287.88;5063857;28;20411;-46
2022/05/03 11:38:48;;;;;;;15.18;10.48;;;;;;;-140.79;100.00;63287.88;5063930;28;20055;-46
2022/05/03 11:41:14;;;;;;;16.15;10.32;;;;;;;-140.79;100.00;63287.88;5064786;28;20052;-47
2022/05/03 11:43:39;;;;;;;13.80;9.13;;;;;;;-140.79;100.00;63287.88;5064505;28;20033;-45
2022/05/03 11:46:04;;;;;;;14.48;8.80;;;;;;;-140.79;100.00;63287.88;5063416;28;20089;-45